Search for airport 
image banner adimage banner adimage banner ad
image banner ad

63CL - G3 Ranch

Located in Capay, United States

ICAO - 63CL, IATA -

Data provided by Airmate  

General information

Coordinates: N38°42'60" W122°8'19"
Elevation is 360 feet MSL.
Magnetic variation is 16° East
View others Airports in California

Operational data

Special qualification required
Current time UTC:
Current local time:
Weather at : KEDU - University ( 37 km )
METAR: KEDU 141115Z AUTO 00000KT 10SM CLR 17/15 A2997 RMK AO1
View NOTAMs / SUP AIP / TFR affecting this airport [VIEW]
Communications frequencies: [VIEW]

Runways:

RWY identifierQFULength (ft)Width (ft)SurfaceLDA (ft)
NW2800110GRASS
SE2800110GRASS

Airport contact information

Address: Capay United States

Satellite view of 63CL